sensor_id;sensor_type;location;lat;lon;timestamp;P1;durP1;ratioP1;P2;durP2;ratioP2
48665;SDS011;34452;50.796;4.994;2023-07-20T00:01:57;5.73;;;2.40;;
48665;SDS011;34452;50.796;4.994;2023-07-20T00:04:23;5.30;;;2.67;;
48665;SDS011;34452;50.796;4.994;2023-07-20T00:06:49;7.03;;;1.90;;
48665;SDS011;34452;50.796;4.994;2023-07-20T00:09:15;8.45;;;2.60;;
48665;SDS011;34452;50.796;4.994;2023-07-20T00:11:47;6.28;;;2.03;;
48665;SDS011;34452;50.796;4.994;2023-07-20T00:14:16;8.90;;;2.40;;
48665;SDS011;34452;50.796;4.994;2023-07-20T00:16:43;7.50;;;2.33;;
48665;SDS011;34452;50.796;4.994;2023-07-20T00:19:11;15.57;;;2.22;;
48665;SDS011;34452;50.796;4.994;2023-07-20T00:21:37;5.32;;;2.17;;
48665;SDS011;34452;50.796;4.994;2023-07-20T00:24:05;4.47;;;2.17;;
48665;SDS011;34452;50.796;4.994;2023-07-20T00:26:31;5.20;;;2.10;;
48665;SDS011;34452;50.796;4.994;2023-07-20T00:28:57;9.35;;;2.25;;
48665;SDS011;34452;50.796;4.994;2023-07-20T00:31:23;7.22;;;2.13;;
48665;SDS011;34452;50.796;4.994;2023-07-20T00:33:48;6.22;;;1.88;;
48665;SDS011;34452;50.796;4.994;2023-07-20T00:36:14;11.30;;;3.10;;
48665;SDS011;34452;50.796;4.994;2023-07-20T00:38:40;8.88;;;2.22;;
48665;SDS011;34452;50.796;4.994;2023-07-20T00:41:06;9.43;;;2.05;;
48665;SDS011;34452;50.796;4.994;2023-07-20T00:43:31;4.07;;;2.10;;
48665;SDS011;34452;50.796;4.994;2023-07-20T00:45:57;9.95;;;2.20;;
48665;SDS011;34452;50.796;4.994;2023-07-20T00:48:23;7.25;;;2.30;;
48665;SDS011;34452;50.796;4.994;2023-07-20T00:50:49;8.13;;;2.05;;
48665;SDS011;34452;50.796;4.994;2023-07-20T00:55:41;6.65;;;1.98;;
48665;SDS011;34452;50.796;4.994;2023-07-20T00:58:07;4.57;;;2.20;;
48665;SDS011;34452;50.796;4.994;2023-07-20T01:00:33;6.70;;;2.25;;
48665;SDS011;34452;50.796;4.994;2023-07-20T01:02:59;7.32;;;2.00;;
48665;SDS011;34452;50.796;4.994;2023-07-20T01:05:27;4.93;;;2.03;;
48665;SDS011;34452;50.796;4.994;2023-07-20T01:08:16;6.60;;;2.63;;
48665;SDS011;34452;50.796;4.994;2023-07-20T01:13:41;7.72;;;2.05;;
48665;SDS011;34452;50.796;4.994;2023-07-20T01:16:08;7.45;;;2.47;;
48665;SDS011;34452;50.796;4.994;2023-07-20T01:18:34;7.78;;;2.28;;
48665;SDS011;34452;50.796;4.994;2023-07-20T01:21:03;6.93;;;2.37;;
48665;SDS011;34452;50.796;4.994;2023-07-20T01:31:48;13.27;;;2.40;;
48665;SDS011;34452;50.796;4.994;2023-07-20T01:34:18;9.80;;;2.53;;
48665;SDS011;34452;50.796;4.994;2023-07-20T01:36:46;10.25;;;3.35;;
48665;SDS011;34452;50.796;4.994;2023-07-20T01:39:15;6.07;;;2.42;;
48665;SDS011;34452;50.796;4.994;2023-07-20T01:44:08;9.00;;;2.53;;
48665;SDS011;34452;50.796;4.994;2023-07-20T01:46:33;11.85;;;2.45;;
48665;SDS011;34452;50.796;4.994;2023-07-20T01:48:59;9.83;;;2.47;;
48665;SDS011;34452;50.796;4.994;2023-07-20T01:51:25;9.82;;;2.35;;
48665;SDS011;34452;50.796;4.994;2023-07-20T01:53:50;11.63;;;2.88;;
48665;SDS011;34452;50.796;4.994;2023-07-20T01:56:16;12.43;;;2.85;;
48665;SDS011;34452;50.796;4.994;2023-07-20T01:58:42;8.10;;;2.50;;
48665;SDS011;34452;50.796;4.994;2023-07-20T02:01:08;8.25;;;2.47;;
48665;SDS011;34452;50.796;4.994;2023-07-20T02:03:33;10.75;;;2.75;;
48665;SDS011;34452;50.796;4.994;2023-07-20T02:05:59;10.18;;;2.40;;
48665;SDS011;34452;50.796;4.994;2023-07-20T02:08:25;6.22;;;2.67;;
48665;SDS011;34452;50.796;4.994;2023-07-20T02:10:50;11.52;;;2.35;;
48665;SDS011;34452;50.796;4.994;2023-07-20T02:13:17;7.88;;;2.85;;
48665;SDS011;34452;50.796;4.994;2023-07-20T02:15:42;10.88;;;2.45;;
48665;SDS011;34452;50.796;4.994;2023-07-20T02:18:08;8.55;;;2.45;;
48665;SDS011;34452;50.796;4.994;2023-07-20T02:20:34;17.00;;;2.60;;
48665;SDS011;34452;50.796;4.994;2023-07-20T02:25:26;16.65;;;3.10;;
48665;SDS011;34452;50.796;4.994;2023-07-20T02:27:52;14.93;;;4.50;;
48665;SDS011;34452;50.796;4.994;2023-07-20T02:30:18;18.33;;;3.22;;
48665;SDS011;34452;50.796;4.994;2023-07-20T02:32:43;16.05;;;3.00;;
48665;SDS011;34452;50.796;4.994;2023-07-20T02:35:10;17.88;;;3.65;;
48665;SDS011;34452;50.796;4.994;2023-07-20T02:40:02;11.15;;;2.80;;
48665;SDS011;34452;50.796;4.994;2023-07-20T02:42:30;19.83;;;3.65;;
48665;SDS011;34452;50.796;4.994;2023-07-20T02:44:56;13.00;;;3.22;;
48665;SDS011;34452;50.796;4.994;2023-07-20T02:47:21;7.53;;;3.05;;
48665;SDS011;34452;50.796;4.994;2023-07-20T02:49:47;11.68;;;3.45;;
48665;SDS011;34452;50.796;4.994;2023-07-20T02:52:13;7.07;;;2.58;;
48665;SDS011;34452;50.796;4.994;2023-07-20T02:54:38;15.48;;;3.25;;
48665;SDS011;34452;50.796;4.994;2023-07-20T02:57:04;14.25;;;3.42;;
48665;SDS011;34452;50.796;4.994;2023-07-20T02:59:30;13.02;;;3.50;;
48665;SDS011;34452;50.796;4.994;2023-07-20T03:01:56;10.55;;;4.13;;
48665;SDS011;34452;50.796;4.994;2023-07-20T03:04:22;10.95;;;3.67;;
48665;SDS011;34452;50.796;4.994;2023-07-20T03:06:50;11.55;;;3.75;;
48665;SDS011;34452;50.796;4.994;2023-07-20T03:09:16;17.95;;;4.72;;
48665;SDS011;34452;50.796;4.994;2023-07-20T03:11:42;23.20;;;4.55;;
48665;SDS011;34452;50.796;4.994;2023-07-20T03:14:08;18.88;;;4.53;;
48665;SDS011;34452;50.796;4.994;2023-07-20T03:16:35;16.40;;;4.47;;
48665;SDS011;34452;50.796;4.994;2023-07-20T03:19:01;16.83;;;6.57;;
48665;SDS011;34452;50.796;4.994;2023-07-20T03:21:27;23.40;;;5.35;;
48665;SDS011;34452;50.796;4.994;2023-07-20T03:23:53;16.98;;;4.13;;
48665;SDS011;34452;50.796;4.994;2023-07-20T03:26:19;10.23;;;4.45;;
48665;SDS011;34452;50.796;4.994;2023-07-20T03:28:45;15.70;;;4.82;;
48665;SDS011;34452;50.796;4.994;2023-07-20T03:31:11;17.58;;;4.95;;
48665;SDS011;34452;50.796;4.994;2023-07-20T03:33:36;16.80;;;4.85;;
48665;SDS011;34452;50.796;4.994;2023-07-20T03:36:02;14.85;;;5.28;;
48665;SDS011;34452;50.796;4.994;2023-07-20T03:38:28;17.27;;;5.32;;
48665;SDS011;34452;50.796;4.994;2023-07-20T03:40:56;24.30;;;5.68;;
48665;SDS011;34452;50.796;4.994;2023-07-20T03:43:23;16.33;;;4.82;;
48665;SDS011;34452;50.796;4.994;2023-07-20T03:45:50;24.27;;;5.43;;
48665;SDS011;34452;50.796;4.994;2023-07-20T03:48:16;21.20;;;5.05;;
48665;SDS011;34452;50.796;4.994;2023-07-20T03:50:44;17.23;;;5.88;;
48665;SDS011;34452;50.796;4.994;2023-07-20T03:53:12;17.05;;;5.07;;
48665;SDS011;34452;50.796;4.994;2023-07-20T03:55:38;18.48;;;5.00;;
48665;SDS011;34452;50.796;4.994;2023-07-20T03:58:05;17.73;;;6.15;;
48665;SDS011;34452;50.796;4.994;2023-07-20T04:02:57;14.60;;;5.50;;
48665;SDS011;34452;50.796;4.994;2023-07-20T04:05:24;27.38;;;6.03;;
48665;SDS011;34452;50.796;4.994;2023-07-20T04:07:50;13.88;;;5.40;;
48665;SDS011;34452;50.796;4.994;2023-07-20T04:10:16;21.15;;;5.47;;
48665;SDS011;34452;50.796;4.994;2023-07-20T04:15:09;15.10;;;5.50;;
48665;SDS011;34452;50.796;4.994;2023-07-20T04:17:35;25.70;;;7.93;;
48665;SDS011;34452;50.796;4.994;2023-07-20T04:20:01;13.00;;;5.45;;
48665;SDS011;34452;50.796;4.994;2023-07-20T04:22:27;17.52;;;6.60;;
48665;SDS011;34452;50.796;4.994;2023-07-20T04:24:53;19.35;;;5.70;;
48665;SDS011;34452;50.796;4.994;2023-07-20T04:27:19;23.80;;;7.72;;
48665;SDS011;34452;50.796;4.994;2023-07-20T04:29:45;16.92;;;6.55;;
48665;SDS011;34452;50.796;4.994;2023-07-20T04:32:10;20.67;;;7.15;;
48665;SDS011;34452;50.796;4.994;2023-07-20T04:34:36;15.83;;;6.53;;
48665;SDS011;34452;50.796;4.994;2023-07-20T04:37:02;15.43;;;5.90;;
48665;SDS011;34452;50.796;4.994;2023-07-20T04:39:29;21.17;;;6.15;;
48665;SDS011;34452;50.796;4.994;2023-07-20T04:44:21;19.48;;;6.50;;
48665;SDS011;34452;50.796;4.994;2023-07-20T04:46:47;14.93;;;6.07;;
48665;SDS011;34452;50.796;4.994;2023-07-20T04:49:12;20.60;;;7.00;;
48665;SDS011;34452;50.796;4.994;2023-07-20T04:51:38;16.52;;;6.47;;
48665;SDS011;34452;50.796;4.994;2023-07-20T04:54:04;17.98;;;6.72;;
48665;SDS011;34452;50.796;4.994;2023-07-20T04:56:30;19.77;;;6.55;;
48665;SDS011;34452;50.796;4.994;2023-07-20T04:58:56;20.20;;;7.35;;
48665;SDS011;34452;50.796;4.994;2023-07-20T05:01:22;17.13;;;6.30;;
48665;SDS011;34452;50.796;4.994;2023-07-20T05:06:14;25.70;;;7.25;;
48665;SDS011;34452;50.796;4.994;2023-07-20T05:08:40;22.15;;;6.93;;
48665;SDS011;34452;50.796;4.994;2023-07-20T05:11:06;20.05;;;6.57;;
48665;SDS011;34452;50.796;4.994;2023-07-20T05:13:32;23.00;;;7.30;;
48665;SDS011;34452;50.796;4.994;2023-07-20T05:15:58;29.75;;;7.50;;
48665;SDS011;34452;50.796;4.994;2023-07-20T05:18:24;22.00;;;7.28;;
48665;SDS011;34452;50.796;4.994;2023-07-20T05:20:50;21.58;;;6.78;;
48665;SDS011;34452;50.796;4.994;2023-07-20T05:28:09;15.93;;;6.18;;
48665;SDS011;34452;50.796;4.994;2023-07-20T05:30:35;16.80;;;6.53;;
48665;SDS011;34452;50.796;4.994;2023-07-20T05:33:00;18.17;;;7.50;;
48665;SDS011;34452;50.796;4.994;2023-07-20T05:35:26;16.10;;;6.43;;
48665;SDS011;34452;50.796;4.994;2023-07-20T05:37:52;15.30;;;7.47;;
48665;SDS011;34452;50.796;4.994;2023-07-20T05:40:18;22.15;;;6.82;;
48665;SDS011;34452;50.796;4.994;2023-07-20T05:42:44;17.00;;;7.03;;
48665;SDS011;34452;50.796;4.994;2023-07-20T05:45:13;19.17;;;9.20;;
48665;SDS011;34452;50.796;4.994;2023-07-20T05:47:41;20.30;;;8.25;;
48665;SDS011;34452;50.796;4.994;2023-07-20T05:50:07;24.70;;;7.95;;
48665;SDS011;34452;50.796;4.994;2023-07-20T05:52:33;13.70;;;7.50;;
48665;SDS011;34452;50.796;4.994;2023-07-20T05:54:58;14.48;;;7.68;;
48665;SDS011;34452;50.796;4.994;2023-07-20T05:57:24;16.45;;;7.15;;
48665;SDS011;34452;50.796;4.994;2023-07-20T05:59:50;19.42;;;8.10;;
48665;SDS011;34452;50.796;4.994;2023-07-20T06:02:16;14.13;;;7.25;;
48665;SDS011;34452;50.796;4.994;2023-07-20T06:04:41;13.88;;;6.88;;
48665;SDS011;34452;50.796;4.994;2023-07-20T06:07:07;20.15;;;8.85;;
48665;SDS011;34452;50.796;4.994;2023-07-20T06:09:33;19.88;;;10.68;;
48665;SDS011;34452;50.796;4.994;2023-07-20T06:11:59;15.52;;;10.07;;
48665;SDS011;34452;50.796;4.994;2023-07-20T06:14:25;23.42;;;10.95;;
48665;SDS011;34452;50.796;4.994;2023-07-20T06:16:50;12.93;;;9.63;;
48665;SDS011;34452;50.796;4.994;2023-07-20T06:19:16;25.23;;;10.93;;
48665;SDS011;34452;50.796;4.994;2023-07-20T06:21:42;19.23;;;9.38;;
48665;SDS011;34452;50.796;4.994;2023-07-20T06:24:08;18.58;;;11.23;;
48665;SDS011;34452;50.796;4.994;2023-07-20T06:26:34;17.83;;;9.82;;
48665;SDS011;34452;50.796;4.994;2023-07-20T06:29:13;20.35;;;8.50;;
48665;SDS011;34452;50.796;4.994;2023-07-20T06:31:39;16.63;;;8.48;;
48665;SDS011;34452;50.796;4.994;2023-07-20T06:34:04;15.75;;;8.85;;
48665;SDS011;34452;50.796;4.994;2023-07-20T06:36:30;19.48;;;11.18;;
48665;SDS011;34452;50.796;4.994;2023-07-20T06:38:56;17.30;;;10.55;;
48665;SDS011;34452;50.796;4.994;2023-07-20T06:41:21;16.67;;;9.70;;
48665;SDS011;34452;50.796;4.994;2023-07-20T06:43:47;16.33;;;9.27;;
48665;SDS011;34452;50.796;4.994;2023-07-20T06:46:13;23.48;;;10.23;;
48665;SDS011;34452;50.796;4.994;2023-07-20T06:48:39;17.33;;;9.73;;
48665;SDS011;34452;50.796;4.994;2023-07-20T06:51:05;21.60;;;13.10;;
48665;SDS011;34452;50.796;4.994;2023-07-20T06:53:31;27.35;;;13.27;;
48665;SDS011;34452;50.796;4.994;2023-07-20T06:55:56;23.42;;;11.50;;
48665;SDS011;34452;50.796;4.994;2023-07-20T06:58:23;18.20;;;10.98;;
48665;SDS011;34452;50.796;4.994;2023-07-20T07:00:49;22.20;;;12.13;;
48665;SDS011;34452;50.796;4.994;2023-07-20T07:03:15;17.42;;;11.30;;
48665;SDS011;34452;50.796;4.994;2023-07-20T07:05:41;18.40;;;11.57;;
48665;SDS011;34452;50.796;4.994;2023-07-20T07:08:07;23.70;;;12.45;;
48665;SDS011;34452;50.796;4.994;2023-07-20T07:10:34;20.23;;;11.93;;
48665;SDS011;34452;50.796;4.994;2023-07-20T07:13:01;23.55;;;11.05;;
48665;SDS011;34452;50.796;4.994;2023-07-20T07:15:27;27.50;;;13.27;;
48665;SDS011;34452;50.796;4.994;2023-07-20T07:17:53;24.08;;;13.25;;
48665;SDS011;34452;50.796;4.994;2023-07-20T07:20:19;20.88;;;11.63;;
48665;SDS011;34452;50.796;4.994;2023-07-20T07:22:45;16.00;;;11.43;;
48665;SDS011;34452;50.796;4.994;2023-07-20T07:25:11;20.13;;;12.23;;
48665;SDS011;34452;50.796;4.994;2023-07-20T07:27:37;18.90;;;12.02;;
48665;SDS011;34452;50.796;4.994;2023-07-20T07:30:03;20.88;;;11.10;;
48665;SDS011;34452;50.796;4.994;2023-07-20T07:32:30;21.63;;;11.82;;
48665;SDS011;34452;50.796;4.994;2023-07-20T07:34:56;18.55;;;11.57;;
48665;SDS011;34452;50.796;4.994;2023-07-20T07:37:23;16.98;;;10.93;;
48665;SDS011;34452;50.796;4.994;2023-07-20T07:39:49;17.35;;;9.90;;
48665;SDS011;34452;50.796;4.994;2023-07-20T07:42:15;14.65;;;9.25;;
48665;SDS011;34452;50.796;4.994;2023-07-20T07:44:40;15.38;;;10.45;;
48665;SDS011;34452;50.796;4.994;2023-07-20T07:47:06;17.48;;;10.18;;
48665;SDS011;34452;50.796;4.994;2023-07-20T07:49:32;16.98;;;10.20;;
48665;SDS011;34452;50.796;4.994;2023-07-20T07:51:58;11.82;;;7.97;;
48665;SDS011;34452;50.796;4.994;2023-07-20T07:54:23;15.18;;;8.55;;
48665;SDS011;34452;50.796;4.994;2023-07-20T07:56:50;14.52;;;9.82;;
48665;SDS011;34452;50.796;4.994;2023-07-20T07:59:16;17.85;;;9.32;;
48665;SDS011;34452;50.796;4.994;2023-07-20T08:01:42;16.83;;;9.80;;
48665;SDS011;34452;50.796;4.994;2023-07-20T08:04:08;15.23;;;9.13;;
48665;SDS011;34452;50.796;4.994;2023-07-20T08:06:33;11.52;;;9.07;;
48665;SDS011;34452;50.796;4.994;2023-07-20T08:08:59;12.75;;;9.15;;
48665;SDS011;34452;50.796;4.994;2023-07-20T08:11:25;15.65;;;9.73;;
48665;SDS011;34452;50.796;4.994;2023-07-20T08:13:51;21.25;;;10.23;;
48665;SDS011;34452;50.796;4.994;2023-07-20T08:16:17;16.25;;;9.73;;
48665;SDS011;34452;50.796;4.994;2023-07-20T08:18:43;15.65;;;9.35;;
48665;SDS011;34452;50.796;4.994;2023-07-20T08:21:10;14.98;;;8.57;;
48665;SDS011;34452;50.796;4.994;2023-07-20T08:23:36;11.77;;;7.70;;
48665;SDS011;34452;50.796;4.994;2023-07-20T08:26:01;20.92;;;9.50;;
48665;SDS011;34452;50.796;4.994;2023-07-20T08:28:27;11.75;;;8.25;;
48665;SDS011;34452;50.796;4.994;2023-07-20T08:30:54;20.75;;;10.02;;
48665;SDS011;34452;50.796;4.994;2023-07-20T08:33:19;16.52;;;8.27;;
48665;SDS011;34452;50.796;4.994;2023-07-20T08:35:45;13.15;;;8.30;;
48665;SDS011;34452;50.796;4.994;2023-07-20T08:40:39;11.07;;;6.68;;
48665;SDS011;34452;50.796;4.994;2023-07-20T08:43:08;17.17;;;7.20;;
48665;SDS011;34452;50.796;4.994;2023-07-20T08:45:35;12.75;;;7.55;;
48665;SDS011;34452;50.796;4.994;2023-07-20T08:48:03;10.43;;;6.28;;
48665;SDS011;34452;50.796;4.994;2023-07-20T08:50:31;9.45;;;6.45;;
48665;SDS011;34452;50.796;4.994;2023-07-20T08:52:57;13.98;;;6.97;;
48665;SDS011;34452;50.796;4.994;2023-07-20T08:55:25;8.32;;;5.90;;
48665;SDS011;34452;50.796;4.994;2023-07-20T08:57:53;7.53;;;6.45;;
48665;SDS011;34452;50.796;4.994;2023-07-20T09:00:20;8.90;;;6.05;;
48665;SDS011;34452;50.796;4.994;2023-07-20T09:02:48;13.52;;;6.78;;
48665;SDS011;34452;50.796;4.994;2023-07-20T09:05:16;13.45;;;7.13;;
48665;SDS011;34452;50.796;4.994;2023-07-20T09:07:42;11.13;;;7.05;;
48665;SDS011;34452;50.796;4.994;2023-07-20T09:10:08;13.13;;;5.97;;
48665;SDS011;34452;50.796;4.994;2023-07-20T09:12:37;10.35;;;5.82;;
48665;SDS011;34452;50.796;4.994;2023-07-20T09:15:04;8.75;;;5.45;;
48665;SDS011;34452;50.796;4.994;2023-07-20T09:17:31;9.98;;;5.90;;
48665;SDS011;34452;50.796;4.994;2023-07-20T09:19:57;8.75;;;5.35;;
48665;SDS011;34452;50.796;4.994;2023-07-20T09:22:29;16.00;;;4.63;;
48665;SDS011;34452;50.796;4.994;2023-07-20T09:24:56;9.20;;;4.75;;
48665;SDS011;34452;50.796;4.994;2023-07-20T09:27:22;6.63;;;4.60;;
48665;SDS011;34452;50.796;4.994;2023-07-20T09:29:54;12.80;;;5.57;;
48665;SDS011;34452;50.796;4.994;2023-07-20T09:32:22;9.15;;;4.60;;
48665;SDS011;34452;50.796;4.994;2023-07-20T09:34:49;9.63;;;4.28;;
48665;SDS011;34452;50.796;4.994;2023-07-20T09:39:58;5.68;;;3.10;;
48665;SDS011;34452;50.796;4.994;2023-07-20T09:42:24;3.38;;;2.72;;
48665;SDS011;34452;50.796;4.994;2023-07-20T09:44:50;6.30;;;3.53;;
48665;SDS011;34452;50.796;4.994;2023-07-20T09:47:22;6.55;;;3.10;;
48665;SDS011;34452;50.796;4.994;2023-07-20T09:49:48;7.05;;;3.20;;
48665;SDS011;34452;50.796;4.994;2023-07-20T09:52:14;7.88;;;4.50;;
48665;SDS011;34452;50.796;4.994;2023-07-20T09:54:40;7.85;;;3.88;;
48665;SDS011;34452;50.796;4.994;2023-07-20T09:57:11;10.40;;;4.00;;
48665;SDS011;34452;50.796;4.994;2023-07-20T09:59:39;7.28;;;4.20;;
48665;SDS011;34452;50.796;4.994;2023-07-20T10:02:05;6.47;;;3.55;;
48665;SDS011;34452;50.796;4.994;2023-07-20T10:04:41;7.40;;;3.63;;
48665;SDS011;34452;50.796;4.994;2023-07-20T10:07:09;8.48;;;4.13;;
48665;SDS011;34452;50.796;4.994;2023-07-20T10:09:37;7.07;;;3.88;;
48665;SDS011;34452;50.796;4.994;2023-07-20T10:12:05;6.95;;;4.30;;
48665;SDS011;34452;50.796;4.994;2023-07-20T10:14:32;7.00;;;3.30;;
48665;SDS011;34452;50.796;4.994;2023-07-20T10:17:03;8.10;;;3.70;;
48665;SDS011;34452;50.796;4.994;2023-07-20T10:19:34;4.75;;;3.33;;
48665;SDS011;34452;50.796;4.994;2023-07-20T10:22:26;6.25;;;4.35;;
48665;SDS011;34452;50.796;4.994;2023-07-20T10:24:52;7.38;;;3.90;;
48665;SDS011;34452;50.796;4.994;2023-07-20T10:27:20;10.93;;;3.40;;
48665;SDS011;34452;50.796;4.994;2023-07-20T10:29:46;3.72;;;2.10;;
48665;SDS011;34452;50.796;4.994;2023-07-20T10:32:13;2.17;;;1.50;;
48665;SDS011;34452;50.796;4.994;2023-07-20T10:34:39;5.80;;;1.92;;
48665;SDS011;34452;50.796;4.994;2023-07-20T10:37:05;2.33;;;1.50;;
48665;SDS011;34452;50.796;4.994;2023-07-20T10:39:31;3.83;;;2.00;;
48665;SDS011;34452;50.796;4.994;2023-07-20T10:42:08;2.97;;;1.70;;
48665;SDS011;34452;50.796;4.994;2023-07-20T10:47:17;6.40;;;1.10;;
48665;SDS011;34452;50.796;4.994;2023-07-20T10:52:36;2.33;;;1.10;;
48665;SDS011;34452;50.796;4.994;2023-07-20T10:58:05;4.75;;;2.47;;
48665;SDS011;34452;50.796;4.994;2023-07-20T11:00:34;3.35;;;1.67;;
48665;SDS011;34452;50.796;4.994;2023-07-20T11:02:59;5.47;;;1.50;;
48665;SDS011;34452;50.796;4.994;2023-07-20T11:05:36;0.90;;;0.82;;
48665;SDS011;34452;50.796;4.994;2023-07-20T11:08:04;2.45;;;1.10;;
48665;SDS011;34452;50.796;4.994;2023-07-20T11:10:31;3.00;;;1.17;;
48665;SDS011;34452;50.796;4.994;2023-07-20T11:18:25;4.15;;;1.45;;
48665;SDS011;34452;50.796;4.994;2023-07-20T11:20:51;2.75;;;1.20;;
48665;SDS011;34452;50.796;4.994;2023-07-20T11:23:19;2.47;;;1.33;;
48665;SDS011;34452;50.796;4.994;2023-07-20T11:25:45;3.83;;;1.50;;
48665;SDS011;34452;50.796;4.994;2023-07-20T11:30:37;3.17;;;1.45;;
48665;SDS011;34452;50.796;4.994;2023-07-20T11:33:05;1.52;;;1.15;;
48665;SDS011;34452;50.796;4.994;2023-07-20T11:38:12;2.67;;;1.20;;
48665;SDS011;34452;50.796;4.994;2023-07-20T11:43:23;2.35;;;0.80;;
48665;SDS011;34452;50.796;4.994;2023-07-20T11:45:49;2.95;;;1.00;;
48665;SDS011;34452;50.796;4.994;2023-07-20T11:48:15;1.45;;;0.85;;
48665;SDS011;34452;50.796;4.994;2023-07-20T11:50:41;5.00;;;1.30;;
48665;SDS011;34452;50.796;4.994;2023-07-20T11:53:07;6.28;;;0.90;;
48665;SDS011;34452;50.796;4.994;2023-07-20T11:55:33;1.38;;;0.85;;
48665;SDS011;34452;50.796;4.994;2023-07-20T11:58:02;2.05;;;1.10;;
48665;SDS011;34452;50.796;4.994;2023-07-20T12:00:28;8.70;;;1.25;;
48665;SDS011;34452;50.796;4.994;2023-07-20T12:02:54;3.63;;;1.17;;
48665;SDS011;34452;50.796;4.994;2023-07-20T12:05:22;2.58;;;1.10;;
48665;SDS011;34452;50.796;4.994;2023-07-20T12:07:48;2.60;;;0.95;;
48665;SDS011;34452;50.796;4.994;2023-07-20T12:10:22;1.85;;;0.88;;
48665;SDS011;34452;50.796;4.994;2023-07-20T12:12:51;2.33;;;0.70;;
48665;SDS011;34452;50.796;4.994;2023-07-20T12:17:55;1.13;;;0.80;;
48665;SDS011;34452;50.796;4.994;2023-07-20T12:20:25;8.10;;;1.08;;
48665;SDS011;34452;50.796;4.994;2023-07-20T12:23:03;3.58;;;1.10;;
48665;SDS011;34452;50.796;4.994;2023-07-20T12:25:43;3.42;;;1.02;;
48665;SDS011;34452;50.796;4.994;2023-07-20T12:28:11;1.45;;;0.80;;
48665;SDS011;34452;50.796;4.994;2023-07-20T12:30:39;2.80;;;1.02;;
48665;SDS011;34452;50.796;4.994;2023-07-20T12:33:05;1.45;;;0.90;;
48665;SDS011;34452;50.796;4.994;2023-07-20T12:37:58;2.90;;;1.10;;
48665;SDS011;34452;50.796;4.994;2023-07-20T12:40:24;1.63;;;0.80;;
48665;SDS011;34452;50.796;4.994;2023-07-20T12:42:50;3.92;;;0.80;;
48665;SDS011;34452;50.796;4.994;2023-07-20T12:45:15;2.22;;;1.13;;
48665;SDS011;34452;50.796;4.994;2023-07-20T12:47:41;1.02;;;0.70;;
48665;SDS011;34452;50.796;4.994;2023-07-20T12:50:09;1.55;;;0.80;;
48665;SDS011;34452;50.796;4.994;2023-07-20T12:52:36;0.73;;;0.65;;
48665;SDS011;34452;50.796;4.994;2023-07-20T12:55:04;4.03;;;0.70;;
48665;SDS011;34452;50.796;4.994;2023-07-20T12:57:30;1.88;;;0.82;;
48665;SDS011;34452;50.796;4.994;2023-07-20T12:59:56;2.10;;;0.90;;
48665;SDS011;34452;50.796;4.994;2023-07-20T13:02:21;3.38;;;1.10;;
48665;SDS011;34452;50.796;4.994;2023-07-20T13:04:47;1.73;;;1.00;;
48665;SDS011;34452;50.796;4.994;2023-07-20T13:07:13;3.42;;;0.98;;
48665;SDS011;34452;50.796;4.994;2023-07-20T13:09:39;3.13;;;1.17;;
48665;SDS011;34452;50.796;4.994;2023-07-20T13:12:04;4.07;;;1.20;;
48665;SDS011;34452;50.796;4.994;2023-07-20T13:14:30;3.92;;;0.80;;
48665;SDS011;34452;50.796;4.994;2023-07-20T13:16:57;5.63;;;1.00;;
48665;SDS011;34452;50.796;4.994;2023-07-20T13:19:22;2.20;;;0.80;;
48665;SDS011;34452;50.796;4.994;2023-07-20T13:21:48;1.75;;;0.80;;
48665;SDS011;34452;50.796;4.994;2023-07-20T13:24:14;1.20;;;0.80;;
48665;SDS011;34452;50.796;4.994;2023-07-20T13:26:40;2.17;;;0.80;;
48665;SDS011;34452;50.796;4.994;2023-07-20T13:29:06;1.85;;;1.15;;
48665;SDS011;34452;50.796;4.994;2023-07-20T13:33:57;1.70;;;0.80;;
48665;SDS011;34452;50.796;4.994;2023-07-20T13:36:23;1.15;;;0.75;;
48665;SDS011;34452;50.796;4.994;2023-07-20T13:38:49;5.18;;;1.30;;
48665;SDS011;34452;50.796;4.994;2023-07-20T13:41:15;3.13;;;0.80;;
48665;SDS011;34452;50.796;4.994;2023-07-20T13:43:41;1.92;;;0.98;;
48665;SDS011;34452;50.796;4.994;2023-07-20T13:48:33;2.13;;;1.00;;
48665;SDS011;34452;50.796;4.994;2023-07-20T13:50:58;1.60;;;1.00;;
48665;SDS011;34452;50.796;4.994;2023-07-20T13:53:24;3.30;;;0.93;;
48665;SDS011;34452;50.796;4.994;2023-07-20T13:55:50;3.70;;;0.90;;
48665;SDS011;34452;50.796;4.994;2023-07-20T13:58:17;5.47;;;1.10;;
48665;SDS011;34452;50.796;4.994;2023-07-20T14:00:43;1.75;;;0.82;;
48665;SDS011;34452;50.796;4.994;2023-07-20T14:03:08;2.38;;;1.00;;
48665;SDS011;34452;50.796;4.994;2023-07-20T14:05:34;1.60;;;0.80;;
48665;SDS011;34452;50.796;4.994;2023-07-20T14:08:00;1.67;;;0.80;;
48665;SDS011;34452;50.796;4.994;2023-07-20T14:10:26;2.40;;;0.95;;
48665;SDS011;34452;50.796;4.994;2023-07-20T14:12:51;2.78;;;1.00;;
48665;SDS011;34452;50.796;4.994;2023-07-20T14:15:17;3.00;;;0.93;;
48665;SDS011;34452;50.796;4.994;2023-07-20T14:17:44;2.08;;;0.80;;
48665;SDS011;34452;50.796;4.994;2023-07-20T14:20:10;1.10;;;0.73;;
48665;SDS011;34452;50.796;4.994;2023-07-20T14:22:36;4.28;;;0.82;;
48665;SDS011;34452;50.796;4.994;2023-07-20T14:25:02;1.58;;;0.90;;
48665;SDS011;34452;50.796;4.994;2023-07-20T14:27:28;2.20;;;1.20;;
48665;SDS011;34452;50.796;4.994;2023-07-20T14:29:53;11.60;;;1.02;;
48665;SDS011;34452;50.796;4.994;2023-07-20T14:32:20;3.45;;;1.13;;
48665;SDS011;34452;50.796;4.994;2023-07-20T14:34:45;4.22;;;0.60;;
48665;SDS011;34452;50.796;4.994;2023-07-20T14:37:11;6.93;;;0.90;;
48665;SDS011;34452;50.796;4.994;2023-07-20T14:39:38;1.85;;;1.00;;
48665;SDS011;34452;50.796;4.994;2023-07-20T14:42:04;4.50;;;0.80;;
48665;SDS011;34452;50.796;4.994;2023-07-20T14:46:55;0.98;;;0.73;;
48665;SDS011;34452;50.796;4.994;2023-07-20T14:49:21;2.75;;;1.25;;
48665;SDS011;34452;50.796;4.994;2023-07-20T14:51:47;2.95;;;1.20;;
48665;SDS011;34452;50.796;4.994;2023-07-20T14:54:14;1.90;;;1.00;;
48665;SDS011;34452;50.796;4.994;2023-07-20T14:56:46;7.82;;;2.17;;
48665;SDS011;34452;50.796;4.994;2023-07-20T14:59:16;1.52;;;1.00;;
48665;SDS011;34452;50.796;4.994;2023-07-20T15:01:42;2.75;;;1.00;;
48665;SDS011;34452;50.796;4.994;2023-07-20T15:04:10;3.40;;;0.75;;
48665;SDS011;34452;50.796;4.994;2023-07-20T15:06:36;2.53;;;1.00;;
48665;SDS011;34452;50.796;4.994;2023-07-20T15:09:02;1.85;;;0.88;;
48665;SDS011;34452;50.796;4.994;2023-07-20T15:11:29;4.10;;;0.88;;
48665;SDS011;34452;50.796;4.994;2023-07-20T15:13:55;2.92;;;0.80;;
48665;SDS011;34452;50.796;4.994;2023-07-20T15:16:21;4.05;;;1.00;;
48665;SDS011;34452;50.796;4.994;2023-07-20T15:18:48;1.33;;;0.80;;
48665;SDS011;34452;50.796;4.994;2023-07-20T15:21:14;2.58;;;0.80;;
48665;SDS011;34452;50.796;4.994;2023-07-20T15:23:41;1.48;;;0.98;;
48665;SDS011;34452;50.796;4.994;2023-07-20T15:26:07;2.53;;;0.77;;
48665;SDS011;34452;50.796;4.994;2023-07-20T15:28:33;11.07;;;1.00;;
48665;SDS011;34452;50.796;4.994;2023-07-20T15:31:00;2.13;;;0.60;;
48665;SDS011;34452;50.796;4.994;2023-07-20T15:33:27;2.05;;;0.60;;
48665;SDS011;34452;50.796;4.994;2023-07-20T15:35:53;2.13;;;0.60;;
48665;SDS011;34452;50.796;4.994;2023-07-20T15:38:18;1.52;;;0.80;;
48665;SDS011;34452;50.796;4.994;2023-07-20T15:40:44;2.22;;;0.93;;
48665;SDS011;34452;50.796;4.994;2023-07-20T15:43:11;4.43;;;0.70;;
48665;SDS011;34452;50.796;4.994;2023-07-20T15:45:37;1.50;;;0.70;;
48665;SDS011;34452;50.796;4.994;2023-07-20T15:48:03;3.50;;;0.80;;
48665;SDS011;34452;50.796;4.994;2023-07-20T15:50:29;1.65;;;0.88;;
48665;SDS011;34452;50.796;4.994;2023-07-20T15:55:20;2.33;;;1.15;;